sensor_id;sensor_type;location;lat;lon;timestamp;P1;durP1;ratioP1;P2;durP2;ratioP2
14116;SDS011;7137;51.436;6.544;2023-06-22T00:02:58;10.57;;;9.20;;
14116;SDS011;7137;51.436;6.544;2023-06-22T00:06:01;11.70;;;9.63;;
14116;SDS011;7137;51.436;6.544;2023-06-22T00:09:02;10.87;;;8.53;;
14116;SDS011;7137;51.436;6.544;2023-06-22T00:12:04;11.07;;;8.63;;
14116;SDS011;7137;51.436;6.544;2023-06-22T00:15:06;10.57;;;8.83;;
14116;SDS011;7137;51.436;6.544;2023-06-22T00:18:09;9.97;;;8.33;;
14116;SDS011;7137;51.436;6.544;2023-06-22T00:21:12;11.17;;;9.53;;
14116;SDS011;7137;51.436;6.544;2023-06-22T00:24:14;10.43;;;9.03;;
14116;SDS011;7137;51.436;6.544;2023-06-22T00:27:16;9.97;;;8.90;;
14116;SDS011;7137;51.436;6.544;2023-06-22T00:30:18;10.37;;;9.07;;
14116;SDS011;7137;51.436;6.544;2023-06-22T00:33:20;9.80;;;8.80;;
14116;SDS011;7137;51.436;6.544;2023-06-22T00:36:23;10.67;;;8.50;;
14116;SDS011;7137;51.436;6.544;2023-06-22T00:39:24;10.50;;;8.60;;
14116;SDS011;7137;51.436;6.544;2023-06-22T00:42:26;11.53;;;8.83;;
14116;SDS011;7137;51.436;6.544;2023-06-22T00:45:27;10.10;;;8.60;;
14116;SDS011;7137;51.436;6.544;2023-06-22T00:48:29;10.47;;;9.40;;
14116;SDS011;7137;51.436;6.544;2023-06-22T00:51:32;10.53;;;9.10;;
14116;SDS011;7137;51.436;6.544;2023-06-22T00:54:38;12.73;;;9.90;;
14116;SDS011;7137;51.436;6.544;2023-06-22T00:57:39;12.33;;;9.70;;
14116;SDS011;7137;51.436;6.544;2023-06-22T01:00:41;10.80;;;9.70;;
14116;SDS011;7137;51.436;6.544;2023-06-22T01:03:43;10.00;;;8.80;;
14116;SDS011;7137;51.436;6.544;2023-06-22T01:06:53;11.13;;;9.93;;
14116;SDS011;7137;51.436;6.544;2023-06-22T01:10:03;12.03;;;9.90;;
14116;SDS011;7137;51.436;6.544;2023-06-22T01:13:11;10.80;;;9.70;;
14116;SDS011;7137;51.436;6.544;2023-06-22T01:16:20;11.63;;;10.53;;
14116;SDS011;7137;51.436;6.544;2023-06-22T01:19:29;11.20;;;9.97;;
14116;SDS011;7137;51.436;6.544;2023-06-22T01:22:43;11.40;;;10.20;;
14116;SDS011;7137;51.436;6.544;2023-06-22T01:25:53;12.13;;;10.93;;
14116;SDS011;7137;51.436;6.544;2023-06-22T01:29:05;12.60;;;10.77;;
14116;SDS011;7137;51.436;6.544;2023-06-22T01:32:08;11.10;;;10.00;;
14116;SDS011;7137;51.436;6.544;2023-06-22T01:35:11;11.80;;;10.00;;
14116;SDS011;7137;51.436;6.544;2023-06-22T01:38:13;13.23;;;11.60;;
14116;SDS011;7137;51.436;6.544;2023-06-22T01:41:16;12.40;;;11.17;;
14116;SDS011;7137;51.436;6.544;2023-06-22T01:44:20;12.37;;;11.17;;
14116;SDS011;7137;51.436;6.544;2023-06-22T01:47:22;12.87;;;11.60;;
14116;SDS011;7137;51.436;6.544;2023-06-22T01:50:25;12.13;;;10.83;;
14116;SDS011;7137;51.436;6.544;2023-06-22T01:53:27;12.87;;;11.57;;
14116;SDS011;7137;51.436;6.544;2023-06-22T01:56:29;13.13;;;11.80;;
14116;SDS011;7137;51.436;6.544;2023-06-22T01:59:34;13.37;;;12.10;;
14116;SDS011;7137;51.436;6.544;2023-06-22T02:02:42;13.53;;;11.77;;
14116;SDS011;7137;51.436;6.544;2023-06-22T02:05:50;14.30;;;12.50;;
14116;SDS011;7137;51.436;6.544;2023-06-22T02:08:57;13.50;;;11.90;;
14116;SDS011;7137;51.436;6.544;2023-06-22T02:12:02;14.23;;;12.47;;
14116;SDS011;7137;51.436;6.544;2023-06-22T02:15:08;13.83;;;12.43;;
14116;SDS011;7137;51.436;6.544;2023-06-22T02:18:10;13.27;;;11.97;;
14116;SDS011;7137;51.436;6.544;2023-06-22T02:21:13;13.60;;;12.30;;
14116;SDS011;7137;51.436;6.544;2023-06-22T02:24:15;14.43;;;13.03;;
14116;SDS011;7137;51.436;6.544;2023-06-22T02:27:17;13.43;;;12.13;;
14116;SDS011;7137;51.436;6.544;2023-06-22T02:30:20;13.70;;;12.30;;
14116;SDS011;7137;51.436;6.544;2023-06-22T02:33:21;14.60;;;13.10;;
14116;SDS011;7137;51.436;6.544;2023-06-22T02:36:23;14.23;;;12.73;;
14116;SDS011;7137;51.436;6.544;2023-06-22T02:39:26;14.27;;;12.87;;
14116;SDS011;7137;51.436;6.544;2023-06-22T02:42:28;14.47;;;13.07;;
14116;SDS011;7137;51.436;6.544;2023-06-22T02:45:31;15.17;;;13.67;;
14116;SDS011;7137;51.436;6.544;2023-06-22T02:48:32;14.17;;;12.73;;
14116;SDS011;7137;51.436;6.544;2023-06-22T02:51:34;14.33;;;12.93;;
14116;SDS011;7137;51.436;6.544;2023-06-22T02:54:36;15.10;;;13.57;;
14116;SDS011;7137;51.436;6.544;2023-06-22T02:57:38;15.00;;;13.60;;
14116;SDS011;7137;51.436;6.544;2023-06-22T03:00:45;15.57;;;13.97;;
14116;SDS011;7137;51.436;6.544;2023-06-22T03:03:46;14.47;;;12.97;;
14116;SDS011;7137;51.436;6.544;2023-06-22T03:06:48;15.03;;;13.47;;
14116;SDS011;7137;51.436;6.544;2023-06-22T03:09:51;14.83;;;13.30;;
14116;SDS011;7137;51.436;6.544;2023-06-22T03:12:52;14.70;;;13.37;;
14116;SDS011;7137;51.436;6.544;2023-06-22T03:15:55;16.03;;;14.40;;
14116;SDS011;7137;51.436;6.544;2023-06-22T03:18:57;15.73;;;14.13;;
14116;SDS011;7137;51.436;6.544;2023-06-22T03:22:00;15.33;;;13.73;;
14116;SDS011;7137;51.436;6.544;2023-06-22T03:25:02;15.93;;;14.23;;
14116;SDS011;7137;51.436;6.544;2023-06-22T03:28:04;16.07;;;14.40;;
14116;SDS011;7137;51.436;6.544;2023-06-22T03:31:07;16.23;;;14.63;;
14116;SDS011;7137;51.436;6.544;2023-06-22T03:34:09;16.37;;;14.87;;
14116;SDS011;7137;51.436;6.544;2023-06-22T03:37:10;16.00;;;14.27;;
14116;SDS011;7137;51.436;6.544;2023-06-22T03:40:12;16.60;;;14.90;;
14116;SDS011;7137;51.436;6.544;2023-06-22T03:43:13;16.53;;;14.93;;
14116;SDS011;7137;51.436;6.544;2023-06-22T03:46:16;15.97;;;14.37;;
14116;SDS011;7137;51.436;6.544;2023-06-22T03:49:20;16.07;;;14.47;;
14116;SDS011;7137;51.436;6.544;2023-06-22T03:52:21;16.27;;;14.73;;
14116;SDS011;7137;51.436;6.544;2023-06-22T03:55:23;16.83;;;15.23;;
14116;SDS011;7137;51.436;6.544;2023-06-22T03:58:24;17.17;;;15.37;;
14116;SDS011;7137;51.436;6.544;2023-06-22T04:01:27;17.03;;;15.47;;
14116;SDS011;7137;51.436;6.544;2023-06-22T04:04:29;17.30;;;15.60;;
14116;SDS011;7137;51.436;6.544;2023-06-22T04:07:30;17.97;;;16.37;;
14116;SDS011;7137;51.436;6.544;2023-06-22T04:10:32;17.80;;;16.00;;
14116;SDS011;7137;51.436;6.544;2023-06-22T04:13:34;17.60;;;15.73;;
14116;SDS011;7137;51.436;6.544;2023-06-22T04:16:37;17.40;;;15.80;;
14116;SDS011;7137;51.436;6.544;2023-06-22T04:19:39;17.50;;;15.80;;
14116;SDS011;7137;51.436;6.544;2023-06-22T04:22:41;17.93;;;16.03;;
14116;SDS011;7137;51.436;6.544;2023-06-22T04:25:42;18.63;;;16.83;;
14116;SDS011;7137;51.436;6.544;2023-06-22T04:28:44;17.97;;;16.17;;
14116;SDS011;7137;51.436;6.544;2023-06-22T04:31:53;21.53;;;18.30;;
14116;SDS011;7137;51.436;6.544;2023-06-22T04:34:56;19.57;;;17.47;;
14116;SDS011;7137;51.436;6.544;2023-06-22T04:37:57;18.63;;;16.63;;
14116;SDS011;7137;51.436;6.544;2023-06-22T04:40:59;19.00;;;17.03;;
14116;SDS011;7137;51.436;6.544;2023-06-22T04:44:03;18.43;;;16.83;;
14116;SDS011;7137;51.436;6.544;2023-06-22T04:47:06;19.13;;;17.13;;
14116;SDS011;7137;51.436;6.544;2023-06-22T04:50:09;19.83;;;18.00;;
14116;SDS011;7137;51.436;6.544;2023-06-22T04:53:10;19.40;;;17.60;;
14116;SDS011;7137;51.436;6.544;2023-06-22T04:56:12;22.33;;;17.70;;
14116;SDS011;7137;51.436;6.544;2023-06-22T04:59:15;19.90;;;17.80;;
14116;SDS011;7137;51.436;6.544;2023-06-22T05:02:20;20.63;;;18.43;;
14116;SDS011;7137;51.436;6.544;2023-06-22T05:05:22;19.50;;;17.50;;
14116;SDS011;7137;51.436;6.544;2023-06-22T05:08:24;19.53;;;17.63;;
14116;SDS011;7137;51.436;6.544;2023-06-22T05:11:26;19.13;;;17.13;;
14116;SDS011;7137;51.436;6.544;2023-06-22T05:14:28;19.13;;;17.17;;
14116;SDS011;7137;51.436;6.544;2023-06-22T05:17:32;19.27;;;17.03;;
14116;SDS011;7137;51.436;6.544;2023-06-22T05:20:33;18.63;;;16.60;;
14116;SDS011;7137;51.436;6.544;2023-06-22T05:23:36;18.53;;;16.53;;
14116;SDS011;7137;51.436;6.544;2023-06-22T05:26:37;18.37;;;16.67;;
14116;SDS011;7137;51.436;6.544;2023-06-22T05:29:39;19.53;;;17.67;;
14116;SDS011;7137;51.436;6.544;2023-06-22T05:32:42;18.57;;;16.77;;
14116;SDS011;7137;51.436;6.544;2023-06-22T05:35:44;19.07;;;17.23;;
14116;SDS011;7137;51.436;6.544;2023-06-22T05:38:45;19.13;;;17.23;;
14116;SDS011;7137;51.436;6.544;2023-06-22T05:41:47;17.47;;;15.77;;
14116;SDS011;7137;51.436;6.544;2023-06-22T05:44:49;18.73;;;17.00;;
14116;SDS011;7137;51.436;6.544;2023-06-22T05:47:52;18.60;;;16.80;;
14116;SDS011;7137;51.436;6.544;2023-06-22T05:50:53;19.07;;;17.17;;
14116;SDS011;7137;51.436;6.544;2023-06-22T05:53:55;19.33;;;17.50;;
14116;SDS011;7137;51.436;6.544;2023-06-22T05:56:56;19.83;;;17.67;;
14116;SDS011;7137;51.436;6.544;2023-06-22T05:59:58;20.87;;;19.00;;
14116;SDS011;7137;51.436;6.544;2023-06-22T06:03:01;20.03;;;18.13;;
14116;SDS011;7137;51.436;6.544;2023-06-22T06:06:04;21.33;;;19.33;;
14116;SDS011;7137;51.436;6.544;2023-06-22T06:09:06;21.00;;;19.20;;
14116;SDS011;7137;51.436;6.544;2023-06-22T06:12:08;23.03;;;20.87;;
14116;SDS011;7137;51.436;6.544;2023-06-22T06:15:10;23.53;;;21.37;;
14116;SDS011;7137;51.436;6.544;2023-06-22T06:18:13;24.50;;;22.20;;
14116;SDS011;7137;51.436;6.544;2023-06-22T06:21:14;26.47;;;24.07;;
14116;SDS011;7137;51.436;6.544;2023-06-22T06:24:16;24.77;;;22.57;;
14116;SDS011;7137;51.436;6.544;2023-06-22T06:27:17;24.37;;;22.17;;
14116;SDS011;7137;51.436;6.544;2023-06-22T06:30:19;23.33;;;21.03;;
14116;SDS011;7137;51.436;6.544;2023-06-22T06:33:23;23.83;;;21.53;;
14116;SDS011;7137;51.436;6.544;2023-06-22T06:36:26;24.23;;;22.13;;
14116;SDS011;7137;51.436;6.544;2023-06-22T06:39:27;24.47;;;22.07;;
14116;SDS011;7137;51.436;6.544;2023-06-22T06:42:29;23.93;;;21.63;;
14116;SDS011;7137;51.436;6.544;2023-06-22T06:45:31;24.37;;;22.17;;
14116;SDS011;7137;51.436;6.544;2023-06-22T06:48:35;24.70;;;22.30;;
14116;SDS011;7137;51.436;6.544;2023-06-22T06:51:37;22.50;;;20.40;;
14116;SDS011;7137;51.436;6.544;2023-06-22T06:54:39;22.43;;;20.23;;
14116;SDS011;7137;51.436;6.544;2023-06-22T06:57:42;22.00;;;19.80;;
14116;SDS011;7137;51.436;6.544;2023-06-22T07:00:43;21.30;;;19.30;;
14116;SDS011;7137;51.436;6.544;2023-06-22T07:03:46;20.97;;;19.00;;
14116;SDS011;7137;51.436;6.544;2023-06-22T07:06:48;20.57;;;18.47;;
14116;SDS011;7137;51.436;6.544;2023-06-22T07:09:49;20.03;;;18.03;;
14116;SDS011;7137;51.436;6.544;2023-06-22T07:12:51;19.03;;;17.00;;
14116;SDS011;7137;51.436;6.544;2023-06-22T07:15:52;18.33;;;16.53;;
14116;SDS011;7137;51.436;6.544;2023-06-22T07:18:55;19.00;;;16.57;;
14116;SDS011;7137;51.436;6.544;2023-06-22T07:21:57;19.27;;;17.27;;
14116;SDS011;7137;51.436;6.544;2023-06-22T07:24:58;18.83;;;16.83;;
14116;SDS011;7137;51.436;6.544;2023-06-22T07:28:02;19.60;;;16.60;;
14116;SDS011;7137;51.436;6.544;2023-06-22T07:31:05;18.63;;;16.50;;
14116;SDS011;7137;51.436;6.544;2023-06-22T07:34:08;18.60;;;16.30;;
14116;SDS011;7137;51.436;6.544;2023-06-22T07:37:09;17.03;;;15.27;;
14116;SDS011;7137;51.436;6.544;2023-06-22T07:40:11;17.73;;;15.93;;
14116;SDS011;7137;51.436;6.544;2023-06-22T07:43:13;17.13;;;15.33;;
14116;SDS011;7137;51.436;6.544;2023-06-22T07:46:15;17.00;;;15.23;;
14116;SDS011;7137;51.436;6.544;2023-06-22T07:49:18;18.37;;;15.33;;
14116;SDS011;7137;51.436;6.544;2023-06-22T07:52:19;17.23;;;15.43;;
14116;SDS011;7137;51.436;6.544;2023-06-22T07:55:21;18.43;;;16.43;;
14116;SDS011;7137;51.436;6.544;2023-06-22T07:58:23;19.07;;;15.83;;
14116;SDS011;7137;51.436;6.544;2023-06-22T08:01:24;17.47;;;15.60;;
14116;SDS011;7137;51.436;6.544;2023-06-22T08:04:30;19.53;;;15.47;;
14116;SDS011;7137;51.436;6.544;2023-06-22T08:07:34;17.60;;;15.80;;
14116;SDS011;7137;51.436;6.544;2023-06-22T08:10:37;18.17;;;16.23;;
14116;SDS011;7137;51.436;6.544;2023-06-22T08:13:39;18.73;;;16.90;;
14116;SDS011;7137;51.436;6.544;2023-06-22T08:16:40;18.20;;;16.53;;
14116;SDS011;7137;51.436;6.544;2023-06-22T08:19:44;19.33;;;17.40;;
14116;SDS011;7137;51.436;6.544;2023-06-22T08:22:45;19.00;;;17.30;;
14116;SDS011;7137;51.436;6.544;2023-06-22T08:25:47;20.60;;;17.90;;
14116;SDS011;7137;51.436;6.544;2023-06-22T08:28:50;19.73;;;17.70;;
14116;SDS011;7137;51.436;6.544;2023-06-22T08:31:52;21.13;;;19.20;;
14116;SDS011;7137;51.436;6.544;2023-06-22T08:34:55;20.90;;;18.70;;
14116;SDS011;7137;51.436;6.544;2023-06-22T08:37:58;22.13;;;19.93;;
14116;SDS011;7137;51.436;6.544;2023-06-22T08:41:02;21.67;;;19.57;;
14116;SDS011;7137;51.436;6.544;2023-06-22T08:44:03;22.43;;;20.23;;
14116;SDS011;7137;51.436;6.544;2023-06-22T08:47:05;22.93;;;20.73;;
14116;SDS011;7137;51.436;6.544;2023-06-22T08:50:09;23.10;;;20.87;;
14116;SDS011;7137;51.436;6.544;2023-06-22T08:53:11;24.03;;;21.87;;
14116;SDS011;7137;51.436;6.544;2023-06-22T08:56:13;23.43;;;21.10;;
14116;SDS011;7137;51.436;6.544;2023-06-22T08:59:14;24.03;;;21.80;;
14116;SDS011;7137;51.436;6.544;2023-06-22T09:02:16;23.17;;;20.87;;
14116;SDS011;7137;51.436;6.544;2023-06-22T09:05:19;24.67;;;22.37;;
14116;SDS011;7137;51.436;6.544;2023-06-22T09:08:22;23.70;;;21.47;;
14116;SDS011;7137;51.436;6.544;2023-06-22T09:11:23;23.40;;;21.20;;
14116;SDS011;7137;51.436;6.544;2023-06-22T09:14:25;24.27;;;21.97;;
14116;SDS011;7137;51.436;6.544;2023-06-22T09:17:27;23.83;;;21.53;;
14116;SDS011;7137;51.436;6.544;2023-06-22T09:20:30;23.03;;;20.93;;
14116;SDS011;7137;51.436;6.544;2023-06-22T09:23:32;22.63;;;20.60;;
14116;SDS011;7137;51.436;6.544;2023-06-22T09:26:33;22.97;;;20.73;;
14116;SDS011;7137;51.436;6.544;2023-06-22T09:29:35;22.43;;;20.20;;
14116;SDS011;7137;51.436;6.544;2023-06-22T09:32:36;21.17;;;19.27;;
14116;SDS011;7137;51.436;6.544;2023-06-22T09:35:39;21.87;;;19.73;;
14116;SDS011;7137;51.436;6.544;2023-06-22T09:38:41;20.83;;;19.03;;
14116;SDS011;7137;51.436;6.544;2023-06-22T09:41:42;21.20;;;19.20;;
14116;SDS011;7137;51.436;6.544;2023-06-22T09:44:44;21.00;;;19.10;;
14116;SDS011;7137;51.436;6.544;2023-06-22T09:47:46;20.40;;;18.20;;
14116;SDS011;7137;51.436;6.544;2023-06-22T09:50:49;19.10;;;17.37;;
14116;SDS011;7137;51.436;6.544;2023-06-22T09:53:51;19.13;;;17.33;;
14116;SDS011;7137;51.436;6.544;2023-06-22T09:56:53;18.77;;;16.87;;
14116;SDS011;7137;51.436;6.544;2023-06-22T09:59:55;18.63;;;16.70;;
14116;SDS011;7137;51.436;6.544;2023-06-22T10:02:57;18.37;;;16.53;;
14116;SDS011;7137;51.436;6.544;2023-06-22T10:05:59;18.33;;;16.67;;
14116;SDS011;7137;51.436;6.544;2023-06-22T10:09:01;17.97;;;16.17;;
14116;SDS011;7137;51.436;6.544;2023-06-22T10:12:03;18.43;;;16.70;;
14116;SDS011;7137;51.436;6.544;2023-06-22T10:15:06;17.73;;;16.13;;
14116;SDS011;7137;51.436;6.544;2023-06-22T10:18:08;18.33;;;16.53;;
14116;SDS011;7137;51.436;6.544;2023-06-22T10:21:11;18.17;;;16.37;;
14116;SDS011;7137;51.436;6.544;2023-06-22T10:24:12;19.80;;;17.70;;
14116;SDS011;7137;51.436;6.544;2023-06-22T10:27:15;18.50;;;16.83;;
14116;SDS011;7137;51.436;6.544;2023-06-22T10:30:17;18.63;;;16.37;;
14116;SDS011;7137;51.436;6.544;2023-06-22T10:33:18;17.73;;;15.93;;
14116;SDS011;7137;51.436;6.544;2023-06-22T10:36:22;18.97;;;17.17;;
14116;SDS011;7137;51.436;6.544;2023-06-22T10:39:23;19.37;;;17.67;;
14116;SDS011;7137;51.436;6.544;2023-06-22T10:42:25;19.47;;;17.67;;
14116;SDS011;7137;51.436;6.544;2023-06-22T10:45:27;16.93;;;15.30;;
14116;SDS011;7137;51.436;6.544;2023-06-22T10:48:28;18.23;;;16.53;;
14116;SDS011;7137;51.436;6.544;2023-06-22T10:51:31;18.13;;;16.43;;
14116;SDS011;7137;51.436;6.544;2023-06-22T10:54:34;18.73;;;17.13;;
14116;SDS011;7137;51.436;6.544;2023-06-22T10:57:37;18.17;;;16.47;;
14116;SDS011;7137;51.436;6.544;2023-06-22T11:00:39;18.50;;;16.80;;
14116;SDS011;7137;51.436;6.544;2023-06-22T11:03:40;19.93;;;18.03;;
14116;SDS011;7137;51.436;6.544;2023-06-22T11:06:43;19.63;;;17.80;;
14116;SDS011;7137;51.436;6.544;2023-06-22T11:09:45;19.67;;;17.87;;
14116;SDS011;7137;51.436;6.544;2023-06-22T11:12:47;20.67;;;18.87;;
14116;SDS011;7137;51.436;6.544;2023-06-22T11:15:48;20.00;;;18.30;;
14116;SDS011;7137;51.436;6.544;2023-06-22T11:18:50;20.67;;;18.67;;
14116;SDS011;7137;51.436;6.544;2023-06-22T11:21:53;19.27;;;17.47;;
14116;SDS011;7137;51.436;6.544;2023-06-22T11:24:54;20.87;;;18.90;;
14116;SDS011;7137;51.436;6.544;2023-06-22T11:27:56;20.40;;;18.60;;
14116;SDS011;7137;51.436;6.544;2023-06-22T11:30:57;20.53;;;18.53;;
14116;SDS011;7137;51.436;6.544;2023-06-22T11:33:59;21.57;;;19.70;;
14116;SDS011;7137;51.436;6.544;2023-06-22T11:37:02;21.23;;;19.40;;
14116;SDS011;7137;51.436;6.544;2023-06-22T11:40:04;21.50;;;19.63;;
14116;SDS011;7137;51.436;6.544;2023-06-22T11:43:08;26.93;;;24.03;;
14116;SDS011;7137;51.436;6.544;2023-06-22T11:46:10;30.23;;;27.37;;
14116;SDS011;7137;51.436;6.544;2023-06-22T11:49:12;32.37;;;29.47;;
14116;SDS011;7137;51.436;6.544;2023-06-22T11:52:15;35.23;;;32.03;;
14116;SDS011;7137;51.436;6.544;2023-06-22T11:55:17;37.37;;;34.03;;
14116;SDS011;7137;51.436;6.544;2023-06-22T11:58:19;39.37;;;35.77;;
14116;SDS011;7137;51.436;6.544;2023-06-22T12:01:20;40.47;;;36.90;;
14116;SDS011;7137;51.436;6.544;2023-06-22T12:04:22;43.03;;;39.20;;
14116;SDS011;7137;51.436;6.544;2023-06-22T12:07:26;43.10;;;39.17;;
14116;SDS011;7137;51.436;6.544;2023-06-22T12:10:27;41.90;;;38.33;;
14116;SDS011;7137;51.436;6.544;2023-06-22T12:13:29;42.23;;;38.40;;
14116;SDS011;7137;51.436;6.544;2023-06-22T12:16:31;43.90;;;40.00;;
14116;SDS011;7137;51.436;6.544;2023-06-22T12:19:33;43.17;;;39.30;;
14116;SDS011;7137;51.436;6.544;2023-06-22T12:22:36;41.43;;;37.90;;
14116;SDS011;7137;51.436;6.544;2023-06-22T12:25:38;41.00;;;37.50;;
14116;SDS011;7137;51.436;6.544;2023-06-22T12:28:40;37.77;;;34.57;;
14116;SDS011;7137;51.436;6.544;2023-06-22T12:31:41;37.40;;;34.20;;
14116;SDS011;7137;51.436;6.544;2023-06-22T12:34:43;36.70;;;33.67;;
14116;SDS011;7137;51.436;6.544;2023-06-22T12:37:46;37.57;;;34.37;;
14116;SDS011;7137;51.436;6.544;2023-06-22T12:40:48;36.57;;;33.33;;
14116;SDS011;7137;51.436;6.544;2023-06-22T12:43:50;35.73;;;32.63;;
14116;SDS011;7137;51.436;6.544;2023-06-22T12:46:51;33.23;;;30.37;;
14116;SDS011;7137;51.436;6.544;2023-06-22T12:49:53;32.57;;;29.63;;
14116;SDS011;7137;51.436;6.544;2023-06-22T12:52:56;30.10;;;27.60;;
14116;SDS011;7137;51.436;6.544;2023-06-22T12:55:58;30.00;;;27.40;;
14116;SDS011;7137;51.436;6.544;2023-06-22T12:58:59;30.43;;;27.83;;
14116;SDS011;7137;51.436;6.544;2023-06-22T13:02:01;28.37;;;25.87;;
14116;SDS011;7137;51.436;6.544;2023-06-22T13:05:03;30.63;;;28.00;;
14116;SDS011;7137;51.436;6.544;2023-06-22T13:08:07;28.30;;;25.83;;
14116;SDS011;7137;51.436;6.544;2023-06-22T13:11:09;28.07;;;25.67;;
14116;SDS011;7137;51.436;6.544;2023-06-22T13:14:10;28.93;;;26.50;;
14116;SDS011;7137;51.436;6.544;2023-06-22T13:17:12;28.57;;;26.10;;
14116;SDS011;7137;51.436;6.544;2023-06-22T13:20:14;28.47;;;25.87;;
14116;SDS011;7137;51.436;6.544;2023-06-22T13:23:17;26.50;;;24.20;;
14116;SDS011;7137;51.436;6.544;2023-06-22T13:26:18;28.03;;;25.67;;
14116;SDS011;7137;51.436;6.544;2023-06-22T13:29:20;31.27;;;28.60;;
14116;SDS011;7137;51.436;6.544;2023-06-22T13:32:21;32.77;;;29.87;;
14116;SDS011;7137;51.436;6.544;2023-06-22T13:35:23;33.87;;;30.87;;
14116;SDS011;7137;51.436;6.544;2023-06-22T13:38:26;34.80;;;31.87;;
14116;SDS011;7137;51.436;6.544;2023-06-22T13:41:27;35.00;;;31.93;;
14116;SDS011;7137;51.436;6.544;2023-06-22T13:44:29;35.47;;;32.37;;
14116;SDS011;7137;51.436;6.544;2023-06-22T13:47:32;36.07;;;32.80;;
14116;SDS011;7137;51.436;6.544;2023-06-22T13:50:33;33.50;;;30.67;;
14116;SDS011;7137;51.436;6.544;2023-06-22T13:53:36;34.27;;;31.37;;
14116;SDS011;7137;51.436;6.544;2023-06-22T13:56:38;34.23;;;31.00;;
14116;SDS011;7137;51.436;6.544;2023-06-22T13:59:39;33.40;;;30.40;;
14116;SDS011;7137;51.436;6.544;2023-06-22T14:02:41;33.93;;;30.93;;
14116;SDS011;7137;51.436;6.544;2023-06-22T14:05:42;34.90;;;31.90;;
14116;SDS011;7137;51.436;6.544;2023-06-22T14:08:45;35.10;;;32.17;;
14116;SDS011;7137;51.436;6.544;2023-06-22T14:11:47;34.30;;;31.23;;
14116;SDS011;7137;51.436;6.544;2023-06-22T14:14:48;34.10;;;30.93;;
14116;SDS011;7137;51.436;6.544;2023-06-22T14:17:50;34.20;;;31.20;;
14116;SDS011;7137;51.436;6.544;2023-06-22T14:20:51;33.50;;;30.43;;
14116;SDS011;7137;51.436;6.544;2023-06-22T14:23:54;35.30;;;32.23;;
14116;SDS011;7137;51.436;6.544;2023-06-22T14:26:57;33.90;;;31.00;;
14116;SDS011;7137;51.436;6.544;2023-06-22T14:29:59;33.17;;;30.23;;
14116;SDS011;7137;51.436;6.544;2023-06-22T14:33:01;32.97;;;30.07;;
14116;SDS011;7137;51.436;6.544;2023-06-22T14:36:02;33.50;;;30.77;;
14116;SDS011;7137;51.436;6.544;2023-06-22T14:39:06;33.23;;;30.43;;
14116;SDS011;7137;51.436;6.544;2023-06-22T14:42:07;33.50;;;30.70;;
14116;SDS011;7137;51.436;6.544;2023-06-22T14:45:10;32.40;;;29.47;;
14116;SDS011;7137;51.436;6.544;2023-06-22T14:48:11;33.77;;;30.67;;
14116;SDS011;7137;51.436;6.544;2023-06-22T14:51:13;32.93;;;29.97;;
14116;SDS011;7137;51.436;6.544;2023-06-22T14:54:16;32.43;;;29.53;;
14116;SDS011;7137;51.436;6.544;2023-06-22T14:57:18;33.33;;;30.43;;
14116;SDS011;7137;51.436;6.544;2023-06-22T15:00:20;33.07;;;30.17;;
14116;SDS011;7137;51.436;6.544;2023-06-22T15:03:22;34.97;;;31.63;;
14116;SDS011;7137;51.436;6.544;2023-06-22T15:06:27;34.43;;;31.33;;
14116;SDS011;7137;51.436;6.544;2023-06-22T15:09:30;34.07;;;31.07;;
14116;SDS011;7137;51.436;6.544;2023-06-22T15:12:33;36.80;;;33.67;;
14116;SDS011;7137;51.436;6.544;2023-06-22T15:15:34;37.37;;;34.00;;
14116;SDS011;7137;51.436;6.544;2023-06-22T15:18:36;37.50;;;34.20;;
14116;SDS011;7137;51.436;6.544;2023-06-22T15:21:38;37.27;;;33.77;;
14116;SDS011;7137;51.436;6.544;2023-06-22T15:24:41;34.80;;;31.50;;
14116;SDS011;7137;51.436;6.544;2023-06-22T15:27:43;34.47;;;31.43;;
14116;SDS011;7137;51.436;6.544;2023-06-22T15:30:45;33.53;;;30.40;;
14116;SDS011;7137;51.436;6.544;2023-06-22T15:33:47;33.03;;;30.03;;
14116;SDS011;7137;51.436;6.544;2023-06-22T15:36:48;32.83;;;29.87;;
14116;SDS011;7137;51.436;6.544;2023-06-22T15:39:51;32.10;;;29.10;;
14116;SDS011;7137;51.436;6.544;2023-06-22T15:42:53;32.00;;;29.03;;
14116;SDS011;7137;51.436;6.544;2023-06-22T15:45:54;30.97;;;28.17;;
14116;SDS011;7137;51.436;6.544;2023-06-22T15:48:56;30.93;;;28.23;;
14116;SDS011;7137;51.436;6.544;2023-06-22T15:51:57;30.00;;;27.30;;
14116;SDS011;7137;51.436;6.544;2023-06-22T15:55:00;30.70;;;27.90;;
14116;SDS011;7137;51.436;6.544;2023-06-22T15:58:02;34.80;;;31.60;;
14116;SDS011;7137;51.436;6.544;2023-06-22T16:01:03;38.37;;;34.87;;
14116;SDS011;7137;51.436;6.544;2023-06-22T16:04:06;39.47;;;35.97;;
14116;SDS011;7137;51.436;6.544;2023-06-22T16:07:07;41.70;;;37.80;;
14116;SDS011;7137;51.436;6.544;2023-06-22T16:10:12;42.43;;;38.50;;
14116;SDS011;7137;51.436;6.544;2023-06-22T16:13:15;44.97;;;40.67;;
14116;SDS011;7137;51.436;6.544;2023-06-22T16:16:17;43.13;;;39.13;;
14116;SDS011;7137;51.436;6.544;2023-06-22T16:19:18;48.40;;;43.70;;
14116;SDS011;7137;51.436;6.544;2023-06-22T16:22:20;48.57;;;44.00;;
14116;SDS011;7137;51.436;6.544;2023-06-22T16:25:23;51.27;;;46.17;;
14116;SDS011;7137;51.436;6.544;2023-06-22T16:28:25;56.20;;;50.80;;
14116;SDS011;7137;51.436;6.544;2023-06-22T16:31:27;58.33;;;52.50;;
14116;SDS011;7137;51.436;6.544;2023-06-22T16:34:28;60.20;;;54.27;;
14116;SDS011;7137;51.436;6.544;2023-06-22T16:37:30;63.47;;;56.80;;
14116;SDS011;7137;51.436;6.544;2023-06-22T16:40:33;66.50;;;59.43;;
14116;SDS011;7137;51.436;6.544;2023-06-22T16:43:36;69.90;;;62.73;;
14116;SDS011;7137;51.436;6.544;2023-06-22T16:46:38;68.53;;;61.27;;
14116;SDS011;7137;51.436;6.544;2023-06-22T16:49:40;74.63;;;66.30;;
14116;SDS011;7137;51.436;6.544;2023-06-22T16:52:42;74.70;;;66.70;;
14116;SDS011;7137;51.436;6.544;2023-06-22T16:55:45;79.37;;;70.73;;
14116;SDS011;7137;51.436;6.544;2023-06-22T16:58:50;78.40;;;70.17;;
14116;SDS011;7137;51.436;6.544;2023-06-22T17:01:53;79.40;;;71.20;;
14116;SDS011;7137;51.436;6.544;2023-06-22T17:04:55;77.60;;;69.70;;
14116;SDS011;7137;51.436;6.544;2023-06-22T17:07:57;79.37;;;70.80;;
14116;SDS011;7137;51.436;6.544;2023-06-22T17:11:03;82.70;;;74.03;;
14116;SDS011;7137;51.436;6.544;2023-06-22T17:14:06;84.87;;;75.67;;
14116;SDS011;7137;51.436;6.544;2023-06-22T17:17:08;84.73;;;75.57;;
14116;SDS011;7137;51.436;6.544;2023-06-22T17:20:10;88.47;;;79.27;;
14116;SDS011;7137;51.436;6.544;2023-06-22T17:23:12;90.30;;;80.93;;
14116;SDS011;7137;51.436;6.544;2023-06-22T17:26:15;89.30;;;80.30;;
14116;SDS011;7137;51.436;6.544;2023-06-22T17:29:17;88.37;;;79.63;;
14116;SDS011;7137;51.436;6.544;2023-06-22T17:32:19;84.67;;;76.20;;
14116;SDS011;7137;51.436;6.544;2023-06-22T17:35:21;88.53;;;80.17;;
14116;SDS011;7137;51.436;6.544;2023-06-22T17:38:22;81.70;;;73.93;;
14116;SDS011;7137;51.436;6.544;2023-06-22T17:41:32;79.77;;;72.03;;
14116;SDS011;7137;51.436;6.544;2023-06-22T17:44:34;78.27;;;70.73;;
14116;SDS011;7137;51.436;6.544;2023-06-22T17:47:36;69.73;;;63.00;;
14116;SDS011;7137;51.436;6.544;2023-06-22T17:50:38;72.13;;;65.43;;
14116;SDS011;7137;51.436;6.544;2023-06-22T17:53:46;70.67;;;64.07;;
14116;SDS011;7137;51.436;6.544;2023-06-22T17:56:50;65.90;;;59.70;;
14116;SDS011;7137;51.436;6.544;2023-06-22T17:59:52;64.73;;;58.53;;
14116;SDS011;7137;51.436;6.544;2023-06-22T18:02:54;59.13;;;53.50;;
14116;SDS011;7137;51.436;6.544;2023-06-22T18:05:56;53.13;;;48.17;;